Pagina principale
METAR-TAF:

METAR-TAF

Aeroporti :

Aeroporto di Maiduguri

Maiduguri, Nigeria

latitudine: 11-51N, longitudine: 013-05E, altezza: 354 m

Osservazione

Il bollettino è stato emesso 9 ore e 50 minuti fa, alle 13:00 UTC
Vento 6 kt da est
Temperature 22°C
Umidità 23%
Pressione 1014 hPa
Visibilità: 8000 m

METAR: DNMA 221300Z 09006KT 8000 NSC 22/00 Q1014

Ora: 23:50 (22:50 UTC)

Previsione

Il bollettino è stato emesso 5 ore e 50 minuti fa, alle 17:00 UTC
Previsione valida dal 22 alle 18 UTC al 23 alle 24 UTC
Vento 8 kt da nord-est
Visibilità: 5000 m
foschia
Evoluzione graduale
dal 22 alle 22 UTC al 22 alle 24 UTC
Visibilità: 3000 m
Temporaneamente
dal 23 alle 05 UTC al 23 alle 11 UTC
Visibilità: 0800 m
polvere diffusa

TAF: DNMA 221700Z 2218/2324 05008KT 5000 HZ NSC BECMG 2222/2224 3000 TEMPO 2305/2311 0800 DU

Osservazioni e previsioni meteorologiche di più di 4000 aeroporti (messaggi METAR e TAF).

Le stazioni disponibili sono rappresentate dai dischi gialli e rossi sulla carta.

Puntare il mouse per vedere il nome della stazione.

Clicca sopra per visualizzare le osservazioni e previsioni meteorologiche.

Per cambiare la mappa : fare clic sui pulsanti verdi con una croce nera per ingrandire, il pulsante verde con un trattino per diminuire, o sulla freccia verde per le mappe adiacenti.


METAR-TAF: